sensor_id;sensor_type;location;lat;lon;timestamp;P1;durP1;ratioP1;P2;durP2;ratioP2
8100;SDS011;4093;53.470;9.832;2022-09-30T00:01:18;13.77;;;10.30;;
8100;SDS011;4093;53.470;9.832;2022-09-30T00:03:46;12.37;;;11.07;;
8100;SDS011;4093;53.470;9.832;2022-09-30T00:06:14;12.90;;;11.27;;
8100;SDS011;4093;53.470;9.832;2022-09-30T00:08:42;14.60;;;11.93;;
8100;SDS011;4093;53.470;9.832;2022-09-30T00:11:12;12.60;;;10.43;;
8100;SDS011;4093;53.470;9.832;2022-09-30T00:13:42;14.50;;;11.57;;
8100;SDS011;4093;53.470;9.832;2022-09-30T00:16:11;12.53;;;10.60;;
8100;SDS011;4093;53.470;9.832;2022-09-30T00:18:40;15.53;;;10.87;;
8100;SDS011;4093;53.470;9.832;2022-09-30T00:21:09;14.50;;;10.90;;
8100;SDS011;4093;53.470;9.832;2022-09-30T00:23:38;14.47;;;10.97;;
8100;SDS011;4093;53.470;9.832;2022-09-30T00:26:07;12.93;;;10.73;;
8100;SDS011;4093;53.470;9.832;2022-09-30T00:28:39;14.30;;;11.50;;
8100;SDS011;4093;53.470;9.832;2022-09-30T00:31:09;13.40;;;11.57;;
8100;SDS011;4093;53.470;9.832;2022-09-30T00:33:39;13.10;;;11.13;;
8100;SDS011;4093;53.470;9.832;2022-09-30T00:36:07;14.10;;;11.23;;
8100;SDS011;4093;53.470;9.832;2022-09-30T00:38:35;13.20;;;11.37;;
8100;SDS011;4093;53.470;9.832;2022-09-30T00:41:03;13.87;;;11.80;;
8100;SDS011;4093;53.470;9.832;2022-09-30T00:43:39;15.30;;;11.97;;
8100;SDS011;4093;53.470;9.832;2022-09-30T00:46:13;17.50;;;11.70;;
8100;SDS011;4093;53.470;9.832;2022-09-30T00:48:47;15.03;;;11.43;;
8100;SDS011;4093;53.470;9.832;2022-09-30T00:51:19;14.47;;;11.30;;
8100;SDS011;4093;53.470;9.832;2022-09-30T00:53:53;14.07;;;12.00;;
8100;SDS011;4093;53.470;9.832;2022-09-30T00:56:24;15.00;;;12.53;;
8100;SDS011;4093;53.470;9.832;2022-09-30T00:58:58;15.37;;;11.87;;
8100;SDS011;4093;53.470;9.832;2022-09-30T01:01:29;14.70;;;12.47;;
8100;SDS011;4093;53.470;9.832;2022-09-30T01:03:58;14.93;;;13.33;;
8100;SDS011;4093;53.470;9.832;2022-09-30T01:06:29;15.23;;;12.87;;
8100;SDS011;4093;53.470;9.832;2022-09-30T01:08:57;17.43;;;13.13;;
8100;SDS011;4093;53.470;9.832;2022-09-30T01:11:26;14.67;;;12.83;;
8100;SDS011;4093;53.470;9.832;2022-09-30T01:13:55;13.83;;;11.97;;
8100;SDS011;4093;53.470;9.832;2022-09-30T01:16:31;16.10;;;11.83;;
8100;SDS011;4093;53.470;9.832;2022-09-30T01:19:18;16.00;;;13.40;;
8100;SDS011;4093;53.470;9.832;2022-09-30T01:21:58;14.07;;;12.10;;
8100;SDS011;4093;53.470;9.832;2022-09-30T01:24:47;16.27;;;13.30;;
8100;SDS011;4093;53.470;9.832;2022-09-30T01:27:34;15.80;;;13.17;;
8100;SDS011;4093;53.470;9.832;2022-09-30T01:30:16;16.90;;;13.67;;
8100;SDS011;4093;53.470;9.832;2022-09-30T01:35:47;16.10;;;13.53;;
8100;SDS011;4093;53.470;9.832;2022-09-30T01:38:34;17.80;;;14.27;;
8100;SDS011;4093;53.470;9.832;2022-09-30T01:41:13;18.70;;;15.00;;
8100;SDS011;4093;53.470;9.832;2022-09-30T01:43:52;17.20;;;14.07;;
8100;SDS011;4093;53.470;9.832;2022-09-30T01:46:29;20.73;;;15.43;;
8100;SDS011;4093;53.470;9.832;2022-09-30T01:49:07;18.17;;;15.10;;
8100;SDS011;4093;53.470;9.832;2022-09-30T01:51:43;19.23;;;15.23;;
8100;SDS011;4093;53.470;9.832;2022-09-30T01:54:20;21.73;;;15.97;;
8100;SDS011;4093;53.470;9.832;2022-09-30T01:56:54;22.07;;;15.93;;
8100;SDS011;4093;53.470;9.832;2022-09-30T01:59:31;21.83;;;16.23;;
8100;SDS011;4093;53.470;9.832;2022-09-30T02:02:04;19.50;;;15.50;;
8100;SDS011;4093;53.470;9.832;2022-09-30T02:04:40;21.33;;;16.53;;
8100;SDS011;4093;53.470;9.832;2022-09-30T02:07:12;23.30;;;16.97;;
8100;SDS011;4093;53.470;9.832;2022-09-30T02:09:48;21.43;;;16.30;;
8100;SDS011;4093;53.470;9.832;2022-09-30T02:12:20;19.10;;;16.30;;
8100;SDS011;4093;53.470;9.832;2022-09-30T02:14:54;19.23;;;16.27;;
8100;SDS011;4093;53.470;9.832;2022-09-30T02:17:27;19.33;;;15.47;;
8100;SDS011;4093;53.470;9.832;2022-09-30T02:20:02;17.77;;;15.87;;
8100;SDS011;4093;53.470;9.832;2022-09-30T02:22:34;19.73;;;15.57;;
8100;SDS011;4093;53.470;9.832;2022-09-30T02:25:11;19.57;;;15.97;;
8100;SDS011;4093;53.470;9.832;2022-09-30T02:27:46;19.87;;;15.67;;
8100;SDS011;4093;53.470;9.832;2022-09-30T02:30:17;17.23;;;14.87;;
8100;SDS011;4093;53.470;9.832;2022-09-30T02:32:46;19.33;;;16.27;;
8100;SDS011;4093;53.470;9.832;2022-09-30T02:35:19;19.43;;;15.37;;
8100;SDS011;4093;53.470;9.832;2022-09-30T02:37:51;17.97;;;15.70;;
8100;SDS011;4093;53.470;9.832;2022-09-30T02:40:23;21.20;;;16.40;;
8100;SDS011;4093;53.470;9.832;2022-09-30T02:42:55;18.93;;;15.73;;
8100;SDS011;4093;53.470;9.832;2022-09-30T02:45:23;21.40;;;17.10;;
8100;SDS011;4093;53.470;9.832;2022-09-30T02:47:56;22.60;;;17.20;;
8100;SDS011;4093;53.470;9.832;2022-09-30T02:50:32;22.53;;;17.23;;
8100;SDS011;4093;53.470;9.832;2022-09-30T02:53:12;22.87;;;16.93;;
8100;SDS011;4093;53.470;9.832;2022-09-30T02:55:51;21.40;;;17.30;;
8100;SDS011;4093;53.470;9.832;2022-09-30T02:58:43;26.73;;;16.47;;
8100;SDS011;4093;53.470;9.832;2022-09-30T03:01:13;22.43;;;17.50;;
8100;SDS011;4093;53.470;9.832;2022-09-30T03:03:43;24.47;;;18.67;;
8100;SDS011;4093;53.470;9.832;2022-09-30T03:06:15;25.23;;;19.27;;
8100;SDS011;4093;53.470;9.832;2022-09-30T03:08:43;23.40;;;19.10;;
8100;SDS011;4093;53.470;9.832;2022-09-30T03:11:12;23.23;;;18.93;;
8100;SDS011;4093;53.470;9.832;2022-09-30T03:16:44;24.07;;;19.07;;
8100;SDS011;4093;53.470;9.832;2022-09-30T03:19:26;22.63;;;18.47;;
8100;SDS011;4093;53.470;9.832;2022-09-30T03:22:16;22.33;;;17.10;;
8100;SDS011;4093;53.470;9.832;2022-09-30T03:25:03;23.47;;;18.43;;
8100;SDS011;4093;53.470;9.832;2022-09-30T03:27:44;22.27;;;17.47;;
8100;SDS011;4093;53.470;9.832;2022-09-30T03:30:25;22.57;;;18.00;;
8100;SDS011;4093;53.470;9.832;2022-09-30T03:33:05;23.57;;;18.80;;
8100;SDS011;4093;53.470;9.832;2022-09-30T03:35:39;24.03;;;18.47;;
8100;SDS011;4093;53.470;9.832;2022-09-30T03:38:17;23.40;;;19.20;;
8100;SDS011;4093;53.470;9.832;2022-09-30T03:40:53;24.37;;;18.97;;
8100;SDS011;4093;53.470;9.832;2022-09-30T03:43:26;24.03;;;18.67;;
8100;SDS011;4093;53.470;9.832;2022-09-30T03:46:00;26.47;;;20.47;;
8100;SDS011;4093;53.470;9.832;2022-09-30T03:48:32;28.33;;;21.47;;
8100;SDS011;4093;53.470;9.832;2022-09-30T03:51:03;25.10;;;19.97;;
8100;SDS011;4093;53.470;9.832;2022-09-30T03:53:37;28.30;;;20.80;;
8100;SDS011;4093;53.470;9.832;2022-09-30T03:56:07;33.10;;;20.53;;
8100;SDS011;4093;53.470;9.832;2022-09-30T03:58:35;29.87;;;19.37;;
8100;SDS011;4093;53.470;9.832;2022-09-30T04:01:07;28.77;;;22.20;;
8100;SDS011;4093;53.470;9.832;2022-09-30T04:03:38;30.27;;;22.80;;
8100;SDS011;4093;53.470;9.832;2022-09-30T04:06:07;27.87;;;22.60;;
8100;SDS011;4093;53.470;9.832;2022-09-30T04:08:37;27.50;;;22.43;;
8100;SDS011;4093;53.470;9.832;2022-09-30T04:11:05;28.30;;;22.23;;
8100;SDS011;4093;53.470;9.832;2022-09-30T04:13:33;28.90;;;23.27;;
8100;SDS011;4093;53.470;9.832;2022-09-30T04:16:00;28.53;;;22.07;;
8100;SDS011;4093;53.470;9.832;2022-09-30T04:18:28;27.57;;;22.87;;
8100;SDS011;4093;53.470;9.832;2022-09-30T04:20:56;27.23;;;21.87;;
8100;SDS011;4093;53.470;9.832;2022-09-30T04:23:24;28.17;;;22.60;;
8100;SDS011;4093;53.470;9.832;2022-09-30T04:25:53;28.63;;;22.60;;
8100;SDS011;4093;53.470;9.832;2022-09-30T04:28:21;30.17;;;24.03;;
8100;SDS011;4093;53.470;9.832;2022-09-30T04:30:49;27.10;;;21.50;;
8100;SDS011;4093;53.470;9.832;2022-09-30T04:33:17;26.50;;;22.20;;
8100;SDS011;4093;53.470;9.832;2022-09-30T04:35:44;29.67;;;22.87;;
8100;SDS011;4093;53.470;9.832;2022-09-30T04:38:12;27.20;;;22.30;;
8100;SDS011;4093;53.470;9.832;2022-09-30T04:40:40;29.67;;;22.43;;
8100;SDS011;4093;53.470;9.832;2022-09-30T04:43:09;27.37;;;22.17;;
8100;SDS011;4093;53.470;9.832;2022-09-30T04:45:37;34.80;;;24.00;;
8100;SDS011;4093;53.470;9.832;2022-09-30T04:48:09;37.27;;;24.17;;
8100;SDS011;4093;53.470;9.832;2022-09-30T04:50:37;27.73;;;23.27;;
8100;SDS011;4093;53.470;9.832;2022-09-30T04:53:05;29.50;;;23.00;;
8100;SDS011;4093;53.470;9.832;2022-09-30T04:55:33;29.77;;;24.17;;
8100;SDS011;4093;53.470;9.832;2022-09-30T04:58:01;28.43;;;22.37;;
8100;SDS011;4093;53.470;9.832;2022-09-30T05:00:30;27.93;;;22.73;;
8100;SDS011;4093;53.470;9.832;2022-09-30T05:02:57;26.70;;;22.77;;
8100;SDS011;4093;53.470;9.832;2022-09-30T05:05:25;28.43;;;23.67;;
8100;SDS011;4093;53.470;9.832;2022-09-30T05:07:54;25.57;;;21.40;;
8100;SDS011;4093;53.470;9.832;2022-09-30T05:10:26;25.23;;;21.20;;
8100;SDS011;4093;53.470;9.832;2022-09-30T05:12:55;24.93;;;19.90;;
8100;SDS011;4093;53.470;9.832;2022-09-30T05:15:23;22.90;;;19.50;;
8100;SDS011;4093;53.470;9.832;2022-09-30T05:17:53;25.90;;;19.50;;
8100;SDS011;4093;53.470;9.832;2022-09-30T05:20:21;24.07;;;19.50;;
8100;SDS011;4093;53.470;9.832;2022-09-30T05:22:52;24.07;;;19.30;;
8100;SDS011;4093;53.470;9.832;2022-09-30T05:25:21;23.07;;;19.50;;
8100;SDS011;4093;53.470;9.832;2022-09-30T05:27:49;22.67;;;19.23;;
8100;SDS011;4093;53.470;9.832;2022-09-30T05:30:17;23.57;;;18.93;;
8100;SDS011;4093;53.470;9.832;2022-09-30T05:32:45;22.77;;;19.70;;
8100;SDS011;4093;53.470;9.832;2022-09-30T05:35:14;21.37;;;19.07;;
8100;SDS011;4093;53.470;9.832;2022-09-30T05:37:42;24.30;;;19.13;;
8100;SDS011;4093;53.470;9.832;2022-09-30T05:40:09;21.67;;;17.93;;
8100;SDS011;4093;53.470;9.832;2022-09-30T05:42:37;25.53;;;17.67;;
8100;SDS011;4093;53.470;9.832;2022-09-30T05:45:05;21.37;;;18.17;;
8100;SDS011;4093;53.470;9.832;2022-09-30T05:47:33;21.10;;;17.43;;
8100;SDS011;4093;53.470;9.832;2022-09-30T05:50:01;22.00;;;17.80;;
8100;SDS011;4093;53.470;9.832;2022-09-30T05:52:31;23.67;;;17.57;;
8100;SDS011;4093;53.470;9.832;2022-09-30T05:54:58;18.80;;;15.77;;
8100;SDS011;4093;53.470;9.832;2022-09-30T05:57:27;22.13;;;17.80;;
8100;SDS011;4093;53.470;9.832;2022-09-30T05:59:55;21.17;;;17.70;;
8100;SDS011;4093;53.470;9.832;2022-09-30T06:02:23;21.80;;;17.90;;
8100;SDS011;4093;53.470;9.832;2022-09-30T06:04:51;21.83;;;18.07;;
8100;SDS011;4093;53.470;9.832;2022-09-30T06:07:19;22.07;;;17.47;;
8100;SDS011;4093;53.470;9.832;2022-09-30T06:09:48;23.57;;;18.20;;
8100;SDS011;4093;53.470;9.832;2022-09-30T06:12:16;22.27;;;18.37;;
8100;SDS011;4093;53.470;9.832;2022-09-30T06:14:44;22.90;;;18.77;;
8100;SDS011;4093;53.470;9.832;2022-09-30T06:17:11;21.87;;;17.73;;
8100;SDS011;4093;53.470;9.832;2022-09-30T06:19:39;23.37;;;18.87;;
8100;SDS011;4093;53.470;9.832;2022-09-30T06:22:07;26.10;;;18.47;;
8100;SDS011;4093;53.470;9.832;2022-09-30T06:24:34;22.20;;;18.83;;
8100;SDS011;4093;53.470;9.832;2022-09-30T06:27:04;21.77;;;18.50;;
8100;SDS011;4093;53.470;9.832;2022-09-30T06:29:31;23.40;;;19.60;;
8100;SDS011;4093;53.470;9.832;2022-09-30T06:31:59;23.50;;;19.60;;
8100;SDS011;4093;53.470;9.832;2022-09-30T06:34:27;20.40;;;16.67;;
8100;SDS011;4093;53.470;9.832;2022-09-30T06:36:55;15.87;;;14.10;;
8100;SDS011;4093;53.470;9.832;2022-09-30T06:39:23;12.97;;;11.67;;
8100;SDS011;4093;53.470;9.832;2022-09-30T06:41:53;13.97;;;11.10;;
8100;SDS011;4093;53.470;9.832;2022-09-30T06:44:22;11.00;;;9.33;;
8100;SDS011;4093;53.470;9.832;2022-09-30T06:46:50;9.77;;;8.77;;
8100;SDS011;4093;53.470;9.832;2022-09-30T06:49:19;10.27;;;9.27;;
8100;SDS011;4093;53.470;9.832;2022-09-30T06:51:48;10.97;;;9.87;;
8100;SDS011;4093;53.470;9.832;2022-09-30T06:54:16;12.03;;;10.83;;
8100;SDS011;4093;53.470;9.832;2022-09-30T06:56:45;13.70;;;11.87;;
8100;SDS011;4093;53.470;9.832;2022-09-30T06:59:13;13.77;;;12.37;;
8100;SDS011;4093;53.470;9.832;2022-09-30T07:01:43;16.47;;;14.07;;
8100;SDS011;4093;53.470;9.832;2022-09-30T07:04:11;17.60;;;13.80;;
8100;SDS011;4093;53.470;9.832;2022-09-30T07:06:40;17.87;;;14.77;;
8100;SDS011;4093;53.470;9.832;2022-09-30T07:09:08;17.33;;;15.37;;
8100;SDS011;4093;53.470;9.832;2022-09-30T07:11:37;18.57;;;14.80;;
8100;SDS011;4093;53.470;9.832;2022-09-30T07:14:06;19.60;;;15.77;;
8100;SDS011;4093;53.470;9.832;2022-09-30T07:16:35;18.63;;;16.20;;
8100;SDS011;4093;53.470;9.832;2022-09-30T07:19:05;19.27;;;16.17;;
8100;SDS011;4093;53.470;9.832;2022-09-30T07:21:35;18.90;;;16.03;;
8100;SDS011;4093;53.470;9.832;2022-09-30T07:24:03;17.57;;;15.30;;
8100;SDS011;4093;53.470;9.832;2022-09-30T07:26:31;19.00;;;15.00;;
8100;SDS011;4093;53.470;9.832;2022-09-30T07:28:58;22.00;;;16.07;;
8100;SDS011;4093;53.470;9.832;2022-09-30T07:31:26;16.37;;;13.53;;
8100;SDS011;4093;53.470;9.832;2022-09-30T07:34:02;14.47;;;12.97;;
8100;SDS011;4093;53.470;9.832;2022-09-30T07:36:33;14.37;;;12.60;;
8100;SDS011;4093;53.470;9.832;2022-09-30T07:39:03;15.20;;;12.83;;
8100;SDS011;4093;53.470;9.832;2022-09-30T07:41:34;13.60;;;12.20;;
8100;SDS011;4093;53.470;9.832;2022-09-30T07:44:04;14.73;;;12.17;;
8100;SDS011;4093;53.470;9.832;2022-09-30T07:46:34;13.73;;;12.10;;
8100;SDS011;4093;53.470;9.832;2022-09-30T07:49:06;14.20;;;12.70;;
8100;SDS011;4093;53.470;9.832;2022-09-30T07:51:38;15.60;;;12.80;;
8100;SDS011;4093;53.470;9.832;2022-09-30T07:54:10;13.73;;;11.47;;
8100;SDS011;4093;53.470;9.832;2022-09-30T07:56:39;11.07;;;9.97;;
8100;SDS011;4093;53.470;9.832;2022-09-30T07:59:29;11.37;;;8.90;;
8100;SDS011;4093;53.470;9.832;2022-09-30T08:01:58;7.40;;;6.70;;
8100;SDS011;4093;53.470;9.832;2022-09-30T08:04:27;8.20;;;7.37;;
8100;SDS011;4093;53.470;9.832;2022-09-30T08:06:56;6.70;;;5.70;;
8100;SDS011;4093;53.470;9.832;2022-09-30T08:09:25;6.60;;;6.00;;
8100;SDS011;4093;53.470;9.832;2022-09-30T08:11:55;6.13;;;5.47;;
8100;SDS011;4093;53.470;9.832;2022-09-30T08:14:24;7.57;;;5.97;;
8100;SDS011;4093;53.470;9.832;2022-09-30T08:16:53;5.70;;;5.13;;
8100;SDS011;4093;53.470;9.832;2022-09-30T08:19:21;6.00;;;5.40;;
8100;SDS011;4093;53.470;9.832;2022-09-30T08:21:52;8.88;;;6.47;;
8100;SDS011;4093;53.470;9.832;2022-09-30T08:24:21;6.00;;;5.40;;
8100;SDS011;4093;53.470;9.832;2022-09-30T08:26:49;6.05;;;5.30;;
8100;SDS011;4093;53.470;9.832;2022-09-30T08:29:18;6.75;;;5.88;;
8100;SDS011;4093;53.470;9.832;2022-09-30T08:32:06;5.35;;;4.85;;
8100;SDS011;4093;53.470;9.832;2022-09-30T08:34:34;5.50;;;5.00;;
8100;SDS011;4093;53.470;9.832;2022-09-30T08:37:03;7.05;;;5.55;;
8100;SDS011;4093;53.470;9.832;2022-09-30T08:39:34;6.82;;;5.68;;
8100;SDS011;4093;53.470;9.832;2022-09-30T08:42:13;5.72;;;4.43;;
8100;SDS011;4093;53.470;9.832;2022-09-30T08:45:07;5.65;;;4.53;;
8100;SDS011;4093;53.470;9.832;2022-09-30T08:47:59;6.13;;;4.40;;
8100;SDS011;4093;53.470;9.832;2022-09-30T08:50:38;5.07;;;4.68;;
8100;SDS011;4093;53.470;9.832;2022-09-30T08:53:19;4.70;;;4.30;;
8100;SDS011;4093;53.470;9.832;2022-09-30T08:55:51;5.25;;;4.75;;
8100;SDS011;4093;53.470;9.832;2022-09-30T08:58:24;5.05;;;4.55;;
8100;SDS011;4093;53.470;9.832;2022-09-30T09:00:55;6.28;;;5.00;;
8100;SDS011;4093;53.470;9.832;2022-09-30T09:03:28;6.07;;;5.47;;
8100;SDS011;4093;53.470;9.832;2022-09-30T09:06:02;5.57;;;5.00;;
8100;SDS011;4093;53.470;9.832;2022-09-30T09:11:47;6.73;;;5.53;;
8100;SDS011;4093;53.470;9.832;2022-09-30T09:14:35;6.93;;;5.30;;
8100;SDS011;4093;53.470;9.832;2022-09-30T09:17:11;6.03;;;5.53;;
8100;SDS011;4093;53.470;9.832;2022-09-30T09:19:53;5.73;;;5.23;;
8100;SDS011;4093;53.470;9.832;2022-09-30T09:22:29;6.27;;;5.67;;
8100;SDS011;4093;53.470;9.832;2022-09-30T09:24:58;7.40;;;5.90;;
8100;SDS011;4093;53.470;9.832;2022-09-30T09:27:34;5.77;;;4.87;;
8100;SDS011;4093;53.470;9.832;2022-09-30T09:30:09;6.50;;;4.83;;
8100;SDS011;4093;53.470;9.832;2022-09-30T09:32:39;5.57;;;4.87;;
8100;SDS011;4093;53.470;9.832;2022-09-30T09:35:12;5.30;;;4.80;;
8100;SDS011;4093;53.470;9.832;2022-09-30T09:37:44;5.83;;;5.07;;
8100;SDS011;4093;53.470;9.832;2022-09-30T09:40:40;8.67;;;5.53;;
8100;SDS011;4093;53.470;9.832;2022-09-30T09:43:25;5.60;;;4.70;;
8100;SDS011;4093;53.470;9.832;2022-09-30T09:45:59;7.20;;;5.00;;
8100;SDS011;4093;53.470;9.832;2022-09-30T09:48:35;6.27;;;5.23;;
8100;SDS011;4093;53.470;9.832;2022-09-30T09:51:04;5.40;;;4.87;;
8100;SDS011;4093;53.470;9.832;2022-09-30T09:53:46;5.90;;;4.87;;
8100;SDS011;4093;53.470;9.832;2022-09-30T09:56:17;4.40;;;4.00;;
8100;SDS011;4093;53.470;9.832;2022-09-30T10:01:39;8.10;;;5.07;;
8100;SDS011;4093;53.470;9.832;2022-09-30T10:04:10;4.03;;;3.60;;
8100;SDS011;4093;53.470;9.832;2022-09-30T10:06:46;6.87;;;4.20;;
8100;SDS011;4093;53.470;9.832;2022-09-30T10:09:23;4.83;;;3.57;;
8100;SDS011;4093;53.470;9.832;2022-09-30T10:15:00;5.63;;;3.60;;
8100;SDS011;4093;53.470;9.832;2022-09-30T10:17:41;4.10;;;3.30;;
8100;SDS011;4093;53.470;9.832;2022-09-30T10:20:17;3.70;;;3.33;;
8100;SDS011;4093;53.470;9.832;2022-09-30T10:22:50;5.27;;;3.70;;
8100;SDS011;4093;53.470;9.832;2022-09-30T10:25:27;4.47;;;3.80;;
8100;SDS011;4093;53.470;9.832;2022-09-30T10:27:55;4.50;;;4.10;;
8100;SDS011;4093;53.470;9.832;2022-09-30T10:33:20;3.87;;;3.50;;
8100;SDS011;4093;53.470;9.832;2022-09-30T10:35:56;6.60;;;4.17;;
8100;SDS011;4093;53.470;9.832;2022-09-30T10:38:29;4.60;;;3.50;;
8100;SDS011;4093;53.470;9.832;2022-09-30T10:41:00;3.57;;;3.27;;
8100;SDS011;4093;53.470;9.832;2022-09-30T10:43:30;3.73;;;3.30;;
8100;SDS011;4093;53.470;9.832;2022-09-30T10:46:05;5.40;;;3.40;;
8100;SDS011;4093;53.470;9.832;2022-09-30T10:48:53;3.23;;;2.93;;
8100;SDS011;4093;53.470;9.832;2022-09-30T10:51:24;2.90;;;2.57;;
8100;SDS011;4093;53.470;9.832;2022-09-30T10:53:54;8.90;;;2.87;;
8100;SDS011;4093;53.470;9.832;2022-09-30T10:56:33;5.27;;;2.30;;
8100;SDS011;4093;53.470;9.832;2022-09-30T10:59:04;3.03;;;2.63;;
8100;SDS011;4093;53.470;9.832;2022-09-30T11:01:45;2.47;;;2.27;;
8100;SDS011;4093;53.470;9.832;2022-09-30T11:04:23;3.27;;;2.17;;
8100;SDS011;4093;53.470;9.832;2022-09-30T11:06:58;3.43;;;2.50;;
8100;SDS011;4093;53.470;9.832;2022-09-30T11:09:32;3.13;;;2.40;;
8100;SDS011;4093;53.470;9.832;2022-09-30T11:12:07;2.77;;;2.33;;
8100;SDS011;4093;53.470;9.832;2022-09-30T11:14:41;2.27;;;2.07;;
8100;SDS011;4093;53.470;9.832;2022-09-30T11:17:17;3.37;;;2.47;;
8100;SDS011;4093;53.470;9.832;2022-09-30T11:19:53;3.20;;;2.40;;
8100;SDS011;4093;53.470;9.832;2022-09-30T11:22:32;3.03;;;2.33;;
8100;SDS011;4093;53.470;9.832;2022-09-30T11:25:08;2.53;;;2.33;;
8100;SDS011;4093;53.470;9.832;2022-09-30T11:27:47;2.60;;;2.40;;
8100;SDS011;4093;53.470;9.832;2022-09-30T11:30:27;3.23;;;2.93;;
8100;SDS011;4093;53.470;9.832;2022-09-30T11:33:09;2.57;;;2.37;;
8100;SDS011;4093;53.470;9.832;2022-09-30T11:35:53;3.43;;;3.13;;
8100;SDS011;4093;53.470;9.832;2022-09-30T11:38:31;4.00;;;3.30;;
8100;SDS011;4093;53.470;9.832;2022-09-30T11:41:15;3.47;;;3.17;;
8100;SDS011;4093;53.470;9.832;2022-09-30T11:43:50;3.50;;;3.20;;
8100;SDS011;4093;53.470;9.832;2022-09-30T11:46:31;3.50;;;3.20;;
8100;SDS011;4093;53.470;9.832;2022-09-30T11:52:12;5.33;;;4.83;;
8100;SDS011;4093;53.470;9.832;2022-09-30T11:55:01;5.50;;;4.40;;
8100;SDS011;4093;53.470;9.832;2022-09-30T11:57:42;4.80;;;4.37;;
8100;SDS011;4093;53.470;9.832;2022-09-30T12:00:17;6.20;;;4.67;;
8100;SDS011;4093;53.470;9.832;2022-09-30T12:02:46;7.10;;;5.53;;
8100;SDS011;4093;53.470;9.832;2022-09-30T12:05:18;6.63;;;5.17;;
8100;SDS011;4093;53.470;9.832;2022-09-30T12:07:53;6.70;;;5.47;;
8100;SDS011;4093;53.470;9.832;2022-09-30T12:10:28;6.13;;;5.47;;
8100;SDS011;4093;53.470;9.832;2022-09-30T12:12:59;7.13;;;5.53;;
8100;SDS011;4093;53.470;9.832;2022-09-30T12:15:29;6.70;;;5.57;;
8100;SDS011;4093;53.470;9.832;2022-09-30T12:17:59;6.40;;;5.77;;
8100;SDS011;4093;53.470;9.832;2022-09-30T12:20:31;6.70;;;6.00;;
8100;SDS011;4093;53.470;9.832;2022-09-30T12:23:08;6.97;;;6.27;;
8100;SDS011;4093;53.470;9.832;2022-09-30T12:25:45;7.17;;;5.93;;
8100;SDS011;4093;53.470;9.832;2022-09-30T12:28:18;6.63;;;4.83;;
8100;SDS011;4093;53.470;9.832;2022-09-30T12:31:12;6.83;;;5.03;;
8100;SDS011;4093;53.470;9.832;2022-09-30T12:33:59;8.20;;;5.13;;
8100;SDS011;4093;53.470;9.832;2022-09-30T12:36:50;6.20;;;5.23;;
8100;SDS011;4093;53.470;9.832;2022-09-30T12:39:46;6.57;;;5.87;;
8100;SDS011;4093;53.470;9.832;2022-09-30T12:42:27;6.17;;;4.83;;
8100;SDS011;4093;53.470;9.832;2022-09-30T12:45:23;5.37;;;4.87;;
8100;SDS011;4093;53.470;9.832;2022-09-30T12:48:17;7.37;;;5.30;;
8100;SDS011;4093;53.470;9.832;2022-09-30T12:50:48;5.00;;;4.30;;
8100;SDS011;4093;53.470;9.832;2022-09-30T12:53:19;4.50;;;4.10;;
8100;SDS011;4093;53.470;9.832;2022-09-30T12:55:53;6.00;;;4.90;;
8100;SDS011;4093;53.470;9.832;2022-09-30T12:58:30;5.27;;;4.57;;
8100;SDS011;4093;53.470;9.832;2022-09-30T13:01:03;6.60;;;3.97;;
8100;SDS011;4093;53.470;9.832;2022-09-30T13:03:43;6.90;;;4.30;;
8100;SDS011;4093;53.470;9.832;2022-09-30T13:06:15;5.60;;;4.60;;
8100;SDS011;4093;53.470;9.832;2022-09-30T13:08:47;5.20;;;4.70;;
8100;SDS011;4093;53.470;9.832;2022-09-30T13:11:38;6.60;;;4.50;;
8100;SDS011;4093;53.470;9.832;2022-09-30T13:14:16;5.37;;;3.80;;
8100;SDS011;4093;53.470;9.832;2022-09-30T13:19:54;5.37;;;4.40;;
8100;SDS011;4093;53.470;9.832;2022-09-30T13:25:23;5.07;;;4.30;;
8100;SDS011;4093;53.470;9.832;2022-09-30T13:27:53;5.47;;;4.97;;
8100;SDS011;4093;53.470;9.832;2022-09-30T13:33:41;5.40;;;4.80;;
8100;SDS011;4093;53.470;9.832;2022-09-30T13:36:15;5.80;;;4.60;;
8100;SDS011;4093;53.470;9.832;2022-09-30T13:39:14;6.00;;;4.80;;
8100;SDS011;4093;53.470;9.832;2022-09-30T13:41:47;5.67;;;5.17;;
8100;SDS011;4093;53.470;9.832;2022-09-30T13:44:24;7.07;;;6.33;;
8100;SDS011;4093;53.470;9.832;2022-09-30T13:47:04;6.93;;;6.10;;
8100;SDS011;4093;53.470;9.832;2022-09-30T13:49:41;7.03;;;5.53;;
8100;SDS011;4093;53.470;9.832;2022-09-30T13:52:14;8.67;;;5.93;;
8100;SDS011;4093;53.470;9.832;2022-09-30T13:54:48;7.03;;;6.07;;
8100;SDS011;4093;53.470;9.832;2022-09-30T13:57:18;9.20;;;6.53;;
8100;SDS011;4093;53.470;9.832;2022-09-30T13:59:55;6.67;;;5.97;;
8100;SDS011;4093;53.470;9.832;2022-09-30T14:02:37;6.80;;;5.57;;
8100;SDS011;4093;53.470;9.832;2022-09-30T14:05:28;7.63;;;6.57;;
8100;SDS011;4093;53.470;9.832;2022-09-30T14:08:26;7.47;;;6.73;;
8100;SDS011;4093;53.470;9.832;2022-09-30T14:11:22;6.60;;;6.00;;
8100;SDS011;4093;53.470;9.832;2022-09-30T14:14:03;7.72;;;6.07;;
8100;SDS011;4093;53.470;9.832;2022-09-30T14:16:55;8.20;;;5.63;;
8100;SDS011;4093;53.470;9.832;2022-09-30T14:19:54;9.53;;;7.37;;
8100;SDS011;4093;53.470;9.832;2022-09-30T14:22:35;6.80;;;6.10;;
8100;SDS011;4093;53.470;9.832;2022-09-30T14:25:08;8.20;;;6.47;;
8100;SDS011;4093;53.470;9.832;2022-09-30T14:30:31;9.53;;;6.63;;
8100;SDS011;4093;53.470;9.832;2022-09-30T14:33:09;6.40;;;5.80;;
8100;SDS011;4093;53.470;9.832;2022-09-30T14:35:44;6.80;;;6.03;;
8100;SDS011;4093;53.470;9.832;2022-09-30T14:38:12;6.10;;;5.50;;
8100;SDS011;4093;53.470;9.832;2022-09-30T14:40:48;7.13;;;5.93;;
8100;SDS011;4093;53.470;9.832;2022-09-30T14:43:19;7.37;;;5.40;;
8100;SDS011;4093;53.470;9.832;2022-09-30T14:45:50;8.43;;;6.40;;
8100;SDS011;4093;53.470;9.832;2022-09-30T14:48:22;7.33;;;5.67;;
8100;SDS011;4093;53.470;9.832;2022-09-30T14:50:55;6.80;;;6.10;;
8100;SDS011;4093;53.470;9.832;2022-09-30T14:53:26;6.67;;;5.00;;
8100;SDS011;4093;53.470;9.832;2022-09-30T14:55:56;6.90;;;5.70;;
8100;SDS011;4093;53.470;9.832;2022-09-30T14:58:24;6.50;;;5.90;;
8100;SDS011;4093;53.470;9.832;2022-09-30T15:00:57;6.10;;;5.50;;
8100;SDS011;4093;53.470;9.832;2022-09-30T15:03:31;6.30;;;5.20;;
8100;SDS011;4093;53.470;9.832;2022-09-30T15:06:00;7.37;;;5.10;;
8100;SDS011;4093;53.470;9.832;2022-09-30T15:08:28;5.23;;;4.73;;
8100;SDS011;4093;53.470;9.832;2022-09-30T15:10:56;6.47;;;5.87;;
8100;SDS011;4093;53.470;9.832;2022-09-30T15:13:25;8.20;;;5.67;;
8100;SDS011;4093;53.470;9.832;2022-09-30T15:15:56;5.87;;;4.90;;
8100;SDS011;4093;53.470;9.832;2022-09-30T15:18:25;6.73;;;4.93;;
8100;SDS011;4093;53.470;9.832;2022-09-30T15:20:57;6.10;;;4.87;;
8100;SDS011;4093;53.470;9.832;2022-09-30T15:23:30;6.47;;;4.47;;
8100;SDS011;4093;53.470;9.832;2022-09-30T15:26:01;5.43;;;4.83;;
8100;SDS011;4093;53.470;9.832;2022-09-30T15:28:32;5.27;;;4.77;;
8100;SDS011;4093;53.470;9.832;2022-09-30T15:31:02;5.87;;;4.60;;
8100;SDS011;4093;53.470;9.832;2022-09-30T15:33:31;5.20;;;4.70;;
8100;SDS011;4093;53.470;9.832;2022-09-30T15:36:01;5.00;;;4.60;;
8100;SDS011;4093;53.470;9.832;2022-09-30T15:38:34;5.30;;;4.80;;
8100;SDS011;4093;53.470;9.832;2022-09-30T15:41:04;8.20;;;5.23;;
8100;SDS011;4093;53.470;9.832;2022-09-30T15:43:35;6.23;;;4.80;;
8100;SDS011;4093;53.470;9.832;2022-09-30T15:46:15;6.57;;;4.83;;
8100;SDS011;4093;53.470;9.832;2022-09-30T15:48:46;6.03;;;5.43;;
8100;SDS011;4093;53.470;9.832;2022-09-30T15:51:28;5.87;;;4.30;;
8100;SDS011;4093;53.470;9.832;2022-09-30T15:54:01;5.53;;;4.93;;
8100;SDS011;4093;53.470;9.832;2022-09-30T15:56:53;5.93;;;4.70;;
8100;SDS011;4093;53.470;9.832;2022-09-30T15:59:21;4.60;;;4.20;;
8100;SDS011;4093;53.470;9.832;2022-09-30T16:01:50;5.07;;;4.63;;
8100;SDS011;4093;53.470;9.832;2022-09-30T16:04:22;8.03;;;4.97;;
8100;SDS011;4093;53.470;9.832;2022-09-30T16:06:53;5.50;;;4.50;;
8100;SDS011;4093;53.470;9.832;2022-09-30T16:09:24;7.10;;;4.27;;
8100;SDS011;4093;53.470;9.832;2022-09-30T16:12:00;5.53;;;4.90;;